createdAt,value
2018-10-17T00:00:19.890Z,60.70
2018-10-17T00:02:51.260Z,55.23
2018-10-17T00:05:23.802Z,56.10
2018-10-17T00:07:55.757Z,58.43
2018-10-17T00:10:27.567Z,55.83
2018-10-17T00:12:59.642Z,54.30
2018-10-17T00:15:31.507Z,53.77
2018-10-17T00:18:03.676Z,52.63
2018-10-17T00:20:35.706Z,54.37
2018-10-17T00:23:07.589Z,56.27
2018-10-17T00:25:38.940Z,57.77
2018-10-17T00:28:10.294Z,56.73
2018-10-17T00:30:42.207Z,60.57
2018-10-17T00:33:14.295Z,59.73
2018-10-17T00:35:46.095Z,63.53
2018-10-17T00:38:18.076Z,65.57
2018-10-17T00:40:50.127Z,62.13
2018-10-17T00:43:22.020Z,60.90
2018-10-17T00:45:53.484Z,59.23
2018-10-17T00:48:24.931Z,59.20
2018-10-17T00:50:56.751Z,60.87
2018-10-17T00:53:28.644Z,57.80
2018-10-17T00:56:00.764Z,58.17
2018-10-17T00:58:32.724Z,55.97
2018-10-17T01:01:05.069Z,55.67
2018-10-17T01:03:37.200Z,58.77
2018-10-17T01:06:09.972Z,58.03
2018-10-17T01:08:41.676Z,57.73
2018-10-17T01:11:13.634Z,52.80
2018-10-17T01:13:45.896Z,57.63
2018-10-17T01:16:18.102Z,56.37
2018-10-17T01:18:50.200Z,49.53
2018-10-17T01:21:22.312Z,50.93
2018-10-17T01:23:53.784Z,60.83
2018-10-17T01:26:25.848Z,60.37
2018-10-17T01:28:57.648Z,61.37
2018-10-17T01:31:29.408Z,61.63
2018-10-17T01:34:01.516Z,58.90
2018-10-17T01:36:33.375Z,56.37
2018-10-17T01:39:05.916Z,57.97
2018-10-17T01:41:37.601Z,58.03
2018-10-17T01:44:09.691Z,62.83
2018-10-17T01:46:41.526Z,75.40
2018-10-17T01:49:13.820Z,62.47
2018-10-17T01:51:45.768Z,59.20
2018-10-17T01:54:17.259Z,60.57
2018-10-17T01:56:49.412Z,58.07
2018-10-17T01:59:21.328Z,66.00
2018-10-17T02:01:53.164Z,66.83
2018-10-17T02:04:25.462Z,71.50
2018-10-17T02:06:57.382Z,65.67
2018-10-17T02:09:29.680Z,59.13
2018-10-17T02:12:01.436Z,57.93
2018-10-17T02:14:33.164Z,63.63
2018-10-17T02:17:05.130Z,62.00
2018-10-17T02:19:37.160Z,67.20
2018-10-17T02:22:08.820Z,66.13
2018-10-17T02:24:40.708Z,67.10
2018-10-17T02:27:12.551Z,66.57
2018-10-17T02:29:44.493Z,66.83
2018-10-17T02:32:15.884Z,66.33
2018-10-17T02:34:53.087Z,61.87
2018-10-17T02:37:24.919Z,64.43
2018-10-17T02:39:57.310Z,59.83
2018-10-17T02:42:29.355Z,63.47
2018-10-17T02:45:01.348Z,63.33
2018-10-17T02:47:33.792Z,66.27
2018-10-17T02:50:09.135Z,64.77
2018-10-17T02:52:41.952Z,63.47
2018-10-17T02:55:16.182Z,72.73
2018-10-17T02:57:48.140Z,67.17
2018-10-17T03:00:20.104Z,68.53
2018-10-17T03:02:52.102Z,72.00
2018-10-17T03:05:24.391Z,70.97
2018-10-17T03:07:56.538Z,69.07
2018-10-17T03:10:28.284Z,72.90
2018-10-17T03:13:00.544Z,73.03
2018-10-17T03:15:32.900Z,76.23
2018-10-17T03:18:04.804Z,78.50
2018-10-17T03:20:36.767Z,76.70
2018-10-17T03:23:09.397Z,76.07
2018-10-17T03:25:42.182Z,80.43
2018-10-17T03:28:13.937Z,75.77
2018-10-17T03:30:46.008Z,75.50
2018-10-17T03:33:18.428Z,74.67
2018-10-17T03:35:50.006Z,73.03
2018-10-17T03:38:22.245Z,75.83
2018-10-17T03:40:54.025Z,71.77
2018-10-17T03:43:26.572Z,72.07
2018-10-17T03:45:59.456Z,70.67
2018-10-17T03:48:31.197Z,69.07
2018-10-17T03:51:02.936Z,67.17
2018-10-17T03:53:35.205Z,65.37
2018-10-17T03:56:07.153Z,64.17
2018-10-17T03:58:39.073Z,63.73
2018-10-17T04:01:10.927Z,64.27
2018-10-17T04:03:42.657Z,58.37
2018-10-17T04:06:14.047Z,62.13
2018-10-17T04:08:45.587Z,63.10
2018-10-17T04:11:17.936Z,62.67
2018-10-17T04:13:49.564Z,65.90
2018-10-17T04:16:21.260Z,60.83
2018-10-17T04:18:52.748Z,58.60
2018-10-17T04:21:24.164Z,63.13
2018-10-17T04:23:55.668Z,65.90
2018-10-17T04:26:27.420Z,63.87
2018-10-17T04:28:59.008Z,63.30
2018-10-17T04:31:30.441Z,60.17
2018-10-17T04:34:02.608Z,61.00
2018-10-17T04:36:34.787Z,58.13
2018-10-17T04:39:08.556Z,60.03
2018-10-17T04:41:40.916Z,58.03
2018-10-17T04:44:13.211Z,59.23
2018-10-17T04:46:44.547Z,59.67
2018-10-17T04:49:16.417Z,61.57
2018-10-17T04:51:48.450Z,59.00
2018-10-17T04:54:20.335Z,60.37
2018-10-17T04:56:51.868Z,65.87
2018-10-17T04:59:23.648Z,59.80
2018-10-17T05:01:55.407Z,97.90
2018-10-17T05:04:27.186Z,87.67
2018-10-17T05:06:59.351Z,69.33
2018-10-17T05:09:30.876Z,63.23
2018-10-17T05:12:02.407Z,65.10
2018-10-17T05:14:33.899Z,59.43
2018-10-17T05:17:05.588Z,59.77
2018-10-17T05:19:37.604Z,66.07
2018-10-17T05:22:09.511Z,69.60
2018-10-17T05:24:41.223Z,73.03
2018-10-17T05:27:12.979Z,70.83
2018-10-17T05:29:44.489Z,73.00
2018-10-17T05:32:16.307Z,68.63
2018-10-17T05:34:48.094Z,75.30
2018-10-17T05:37:21.048Z,66.73
2018-10-17T05:39:52.951Z,60.20
2018-10-17T05:42:24.357Z,56.90
2018-10-17T05:44:55.968Z,65.90
2018-10-17T05:47:43.296Z,69.50
2018-10-17T05:50:15.352Z,68.40
2018-10-17T05:52:47.259Z,64.73
2018-10-17T05:55:20.294Z,63.07
2018-10-17T05:57:51.884Z,64.00
2018-10-17T06:00:23.833Z,62.43
2018-10-17T06:02:56.008Z,63.60
2018-10-17T06:05:27.679Z,65.73
2018-10-17T06:07:59.157Z,66.83
2018-10-17T06:10:31.272Z,66.17
2018-10-17T06:13:03.647Z,65.83
2018-10-17T06:15:35.576Z,71.10
2018-10-17T06:18:07.387Z,67.60
2018-10-17T06:20:38.902Z,68.40
2018-10-17T06:23:10.888Z,70.33
2018-10-17T06:25:43.707Z,74.30
2018-10-17T06:28:15.193Z,78.87
2018-10-17T06:30:49.658Z,79.50
2018-10-17T06:33:22.130Z,76.07
2018-10-17T06:35:54.013Z,72.83
2018-10-17T06:38:27.209Z,74.57
2018-10-17T06:40:58.794Z,73.40
2018-10-17T06:43:30.644Z,82.30
2018-10-17T06:46:03.147Z,76.00
2018-10-17T06:48:34.907Z,68.63
2018-10-17T06:51:08.103Z,70.50
2018-10-17T06:53:40.275Z,65.03
2018-10-17T06:56:11.904Z,67.43
2018-10-17T06:58:44.819Z,64.77
2018-10-17T07:01:41.902Z,62.73
2018-10-17T07:04:13.512Z,62.83
2018-10-17T07:06:45.012Z,57.80
2018-10-17T07:09:16.538Z,55.63
2018-10-17T07:11:48.597Z,53.40
2018-10-17T07:14:20.153Z,49.37
2018-10-17T07:16:51.858Z,47.47
2018-10-17T07:19:23.444Z,49.03
2018-10-17T07:21:55.044Z,44.20
2018-10-17T07:24:27.121Z,41.73
2018-10-17T07:26:59.661Z,38.93
2018-10-17T07:29:32.424Z,40.97
2018-10-17T07:32:04.164Z,38.97
2018-10-17T07:34:36.119Z,39.00
2018-10-17T07:37:09.588Z,36.87
2018-10-17T07:39:41.059Z,37.47
2018-10-17T07:42:13.632Z,38.90
2018-10-17T07:44:45.403Z,38.97
2018-10-17T07:47:17.579Z,38.27
2018-10-17T07:49:49.924Z,39.53
2018-10-17T07:52:21.471Z,37.87
2018-10-17T07:54:54.019Z,37.30
2018-10-17T07:57:26.013Z,38.73
2018-10-17T07:59:58.616Z,37.13
2018-10-17T08:02:30.066Z,38.33
2018-10-17T08:05:01.840Z,37.77
2018-10-17T08:07:33.690Z,38.03
2018-10-17T08:10:05.493Z,35.73
2018-10-17T08:12:37.564Z,36.20
2018-10-17T08:15:10.243Z,35.57
2018-10-17T08:17:42.997Z,35.90
2018-10-17T08:20:14.900Z,34.77
2018-10-17T08:22:46.697Z,33.27
2018-10-17T08:25:19.689Z,33.20
2018-10-17T08:27:51.712Z,35.27
2018-10-17T08:30:23.696Z,33.77
2018-10-17T08:32:55.556Z,34.03
2018-10-17T08:35:27.020Z,32.23
2018-10-17T08:37:59.754Z,33.77
2018-10-17T08:40:31.289Z,32.67
2018-10-17T08:43:03.349Z,32.93
2018-10-17T08:45:35.281Z,30.07
2018-10-17T08:48:07.198Z,27.73
2018-10-17T08:50:38.931Z,28.40
2018-10-17T08:53:10.604Z,24.53
2018-10-17T08:55:42.117Z,27.63
2018-10-17T08:58:13.974Z,22.00
2018-10-17T09:00:45.579Z,19.90
2018-10-17T09:03:17.342Z,17.97
2018-10-17T09:05:48.688Z,18.97
2018-10-17T09:08:20.283Z,17.60
2018-10-17T09:10:51.783Z,17.27
2018-10-17T09:13:23.417Z,16.47
2018-10-17T09:15:55.158Z,14.43
2018-10-17T09:18:26.559Z,12.43
2018-10-17T09:20:58.418Z,11.47
2018-10-17T09:23:29.849Z,11.33
2018-10-17T09:26:01.368Z,11.20
2018-10-17T09:28:32.885Z,10.57
2018-10-17T09:31:04.338Z,9.67
2018-10-17T09:33:36.257Z,9.93
2018-10-17T09:36:08.016Z,9.30
2018-10-17T09:38:39.673Z,10.37
2018-10-17T09:41:11.117Z,9.83
2018-10-17T09:43:42.820Z,10.20
2018-10-17T09:46:15.492Z,9.60
2018-10-17T09:48:47.439Z,9.30
2018-10-17T09:51:19.186Z,9.17
2018-10-17T09:53:50.649Z,9.70
2018-10-17T09:56:22.233Z,8.70
2018-10-17T09:58:54.079Z,8.50
2018-10-17T10:01:30.213Z,8.27
2018-10-17T10:04:01.862Z,8.90
2018-10-17T10:06:34.601Z,8.60
2018-10-17T10:09:07.167Z,7.70
2018-10-17T10:11:38.916Z,8.13
2018-10-17T10:14:10.452Z,7.83
2018-10-17T10:16:42.132Z,8.20
2018-10-17T10:19:13.785Z,7.53
2018-10-17T10:21:45.568Z,8.13
2018-10-17T10:24:19.952Z,8.37
2018-10-17T10:26:51.632Z,8.43
2018-10-17T10:29:23.211Z,8.30
2018-10-17T10:31:54.804Z,8.53
2018-10-17T10:34:26.322Z,8.70
2018-10-17T10:36:57.929Z,8.00
2018-10-17T10:39:29.401Z,10.07
2018-10-17T10:42:00.877Z,10.00
2018-10-17T10:44:32.644Z,10.20
2018-10-17T10:47:04.358Z,10.10
2018-10-17T10:49:35.906Z,9.80
2018-10-17T10:52:07.457Z,8.90
2018-10-17T10:54:39.467Z,9.07
2018-10-17T10:57:11.344Z,8.57
2018-10-17T10:59:43.135Z,8.57
2018-10-17T11:02:14.813Z,8.70
2018-10-17T11:04:47.157Z,8.60
2018-10-17T11:07:18.721Z,8.40
2018-10-17T11:09:50.567Z,8.70
2018-10-17T11:12:22.180Z,7.30
2018-10-17T11:14:54.768Z,8.50
2018-10-17T11:17:26.852Z,8.10
2018-10-17T11:19:58.277Z,9.10
2018-10-17T11:22:29.909Z,13.07
2018-10-17T11:25:01.539Z,8.73
2018-10-17T11:27:33.445Z,8.23
2018-10-17T11:30:05.231Z,7.90
2018-10-17T11:32:36.918Z,8.30
2018-10-17T11:35:09.917Z,7.60
2018-10-17T11:37:41.984Z,7.43
2018-10-17T11:40:14.964Z,8.47
2018-10-17T11:42:47.157Z,7.87
2018-10-17T11:45:19.627Z,8.03
2018-10-17T11:47:51.686Z,7.50
2018-10-17T11:50:23.899Z,7.53
2018-10-17T11:52:55.678Z,8.00
2018-10-17T11:55:27.319Z,7.90
2018-10-17T11:57:58.973Z,7.20
2018-10-17T12:00:31.743Z,7.80
2018-10-17T12:03:06.412Z,7.10
2018-10-17T12:05:38.567Z,7.00
2018-10-17T12:08:11.042Z,7.23
2018-10-17T12:10:42.460Z,7.07
2018-10-17T12:13:13.928Z,7.50
2018-10-17T12:15:45.928Z,8.27
2018-10-17T12:18:17.479Z,6.77
2018-10-17T12:20:49.767Z,7.40
2018-10-17T12:23:21.604Z,7.47
2018-10-17T12:25:52.981Z,7.37
2018-10-17T12:28:24.522Z,7.00
2018-10-17T12:30:56.356Z,6.17
2018-10-17T12:33:27.785Z,6.97
2018-10-17T12:35:59.892Z,6.03
2018-10-17T12:38:31.649Z,6.60
2018-10-17T12:41:03.253Z,7.37
2018-10-17T12:43:34.657Z,5.90
2018-10-17T12:46:07.137Z,5.93
2018-10-17T12:48:38.706Z,6.60
2018-10-17T12:51:10.198Z,6.00
2018-10-17T12:53:41.721Z,6.20
2018-10-17T12:56:14.461Z,6.53
2018-10-17T12:58:46.159Z,5.70
2018-10-17T13:01:18.081Z,10.20
2018-10-17T13:03:49.901Z,6.53
2018-10-17T13:06:21.473Z,5.53
2018-10-17T13:08:54.002Z,6.20
2018-10-17T13:11:25.954Z,6.17
2018-10-17T13:13:58.105Z,6.00
2018-10-17T13:16:29.565Z,6.23
2018-10-17T13:19:01.072Z,5.50
2018-10-17T13:21:35.570Z,5.60
2018-10-17T13:24:07.488Z,5.60
2018-10-17T13:26:40.510Z,5.47
2018-10-17T13:29:12.048Z,5.63
2018-10-17T13:31:44.597Z,5.50
2018-10-17T13:34:16.439Z,5.67
2018-10-17T13:36:48.937Z,6.17
2018-10-17T13:39:20.473Z,5.93
2018-10-17T13:41:52.490Z,5.87
2018-10-17T13:44:23.868Z,6.53
2018-10-17T13:46:55.980Z,6.40
2018-10-17T13:49:27.855Z,6.23
2018-10-17T13:51:59.468Z,6.40
2018-10-17T13:54:30.953Z,5.60
2018-10-17T13:57:02.667Z,5.90
2018-10-17T13:59:34.250Z,5.50
2018-10-17T14:02:05.798Z,6.23
2018-10-17T14:04:37.762Z,5.90
2018-10-17T14:07:09.327Z,5.73
2018-10-17T14:09:40.893Z,5.77
2018-10-17T14:12:12.462Z,5.27
2018-10-17T14:14:43.880Z,5.87
2018-10-17T14:17:15.906Z,5.63
2018-10-17T14:19:48.453Z,5.97
2018-10-17T14:22:22.056Z,5.77
2018-10-17T14:24:53.673Z,5.57
2018-10-17T14:27:25.580Z,5.97
2018-10-17T14:29:57.536Z,5.60
2018-10-17T14:32:29.023Z,5.90
2018-10-17T14:35:00.709Z,6.03
2018-10-17T14:37:32.403Z,6.03
2018-10-17T14:40:04.018Z,5.67
2018-10-17T14:42:36.013Z,6.00
2018-10-17T14:45:08.857Z,6.40
2018-10-17T14:47:41.350Z,6.10
2018-10-17T14:50:13.384Z,6.17
2018-10-17T14:52:45.041Z,6.40
2018-10-17T14:55:16.655Z,6.77
2018-10-17T14:57:48.187Z,6.13
2018-10-17T15:00:19.812Z,5.77
2018-10-17T15:02:51.588Z,5.67
2018-10-17T15:05:23.084Z,5.70
2018-10-17T15:07:55.030Z,6.63
2018-10-17T15:10:26.848Z,6.17
2018-10-17T15:12:58.567Z,5.97
2018-10-17T15:15:30.163Z,6.17
2018-10-17T15:18:01.774Z,5.67
2018-10-17T15:20:33.244Z,5.93
2018-10-17T15:23:04.840Z,5.83
2018-10-17T15:25:36.339Z,6.10
2018-10-17T15:28:07.914Z,6.00
2018-10-17T15:30:39.671Z,6.30
2018-10-17T15:33:12.188Z,6.50
2018-10-17T15:35:43.772Z,7.27
2018-10-17T15:38:15.800Z,6.73
2018-10-17T15:40:49.238Z,6.60
2018-10-17T15:43:22.503Z,6.93
2018-10-17T15:45:54.158Z,6.77
2018-10-17T15:48:25.577Z,6.87
2018-10-17T15:50:57.344Z,6.57
2018-10-17T15:53:28.883Z,8.30
2018-10-17T15:56:01.944Z,6.90
2018-10-17T15:58:33.673Z,6.33
2018-10-17T16:01:06.356Z,6.73
2018-10-17T16:03:38.905Z,6.50
2018-10-17T16:06:11.300Z,7.23
2018-10-17T16:08:44.078Z,7.33
2018-10-17T16:11:15.879Z,6.87
2018-10-17T16:13:48.302Z,7.13
2018-10-17T16:16:22.281Z,7.37
2018-10-17T16:18:54.166Z,7.80
2018-10-17T16:21:27.281Z,7.73
2018-10-17T16:23:59.954Z,12.57
2018-10-17T16:26:33.617Z,11.80
2018-10-17T16:29:05.563Z,23.17
2018-10-17T16:31:39.032Z,26.53
2018-10-17T16:34:10.894Z,31.60
2018-10-17T16:36:43.078Z,30.50
2018-10-17T16:39:14.732Z,33.97
2018-10-17T16:41:46.235Z,36.27
2018-10-17T16:44:18.009Z,40.13
2018-10-17T16:46:51.496Z,42.03
2018-10-17T16:49:25.023Z,43.73
2018-10-17T16:51:57.694Z,45.00
2018-10-17T16:54:29.331Z,47.37
2018-10-17T16:57:00.931Z,44.70
2018-10-17T16:59:33.421Z,48.13
2018-10-17T17:02:06.088Z,46.50
2018-10-17T17:04:38.414Z,45.53
2018-10-17T17:07:10.128Z,48.50
2018-10-17T17:09:42.621Z,49.07
2018-10-17T17:12:14.277Z,50.43
2018-10-17T17:14:46.122Z,49.60
2018-10-17T17:17:18.319Z,51.53
2018-10-17T17:19:50.216Z,53.90
2018-10-17T17:22:21.910Z,55.23
2018-10-17T17:24:53.584Z,56.63
2018-10-17T17:27:25.370Z,57.93
2018-10-17T17:29:57.271Z,56.47
2018-10-17T17:32:28.889Z,60.70
2018-10-17T17:35:01.699Z,59.73
2018-10-17T17:37:33.358Z,60.23
2018-10-17T17:40:05.159Z,61.93
2018-10-17T17:42:36.963Z,61.13
2018-10-17T17:45:10.211Z,63.30
2018-10-17T17:47:42.259Z,64.47
2018-10-17T17:50:13.991Z,63.57
2018-10-17T17:52:46.560Z,63.83
2018-10-17T17:55:18.266Z,63.93
2018-10-17T17:57:50.112Z,65.20
2018-10-17T18:00:21.940Z,67.17
2018-10-17T18:02:53.622Z,65.07
2018-10-17T18:05:25.504Z,68.00
2018-10-17T18:07:57.121Z,68.03
2018-10-17T18:10:29.672Z,69.63
2018-10-17T18:13:01.568Z,70.53
2018-10-17T18:15:33.438Z,70.27
2018-10-17T18:18:06.514Z,74.23
2018-10-17T18:20:38.163Z,70.33
2018-10-17T18:23:09.915Z,73.77
2018-10-17T18:25:42.481Z,75.40
2018-10-17T18:28:14.458Z,73.50
2018-10-17T18:30:46.314Z,74.17
2018-10-17T18:33:18.043Z,74.30
2018-10-17T18:35:50.531Z,76.23
2018-10-17T18:38:22.856Z,76.57
2018-10-17T18:40:55.524Z,76.27
2018-10-17T18:43:27.786Z,78.73
2018-10-17T18:45:59.942Z,77.97
2018-10-17T18:48:32.605Z,77.63
2018-10-17T18:51:04.836Z,76.63
2018-10-17T18:53:36.882Z,79.50
2018-10-17T18:56:09.012Z,79.13
2018-10-17T18:58:41.256Z,79.90
2018-10-17T19:01:13.510Z,83.63
2018-10-17T19:03:45.348Z,78.90
2018-10-17T19:06:17.228Z,84.00
2018-10-17T19:08:49.136Z,84.97
2018-10-17T19:11:21.171Z,78.43
2018-10-17T19:13:53.821Z,83.83
2018-10-17T19:16:25.711Z,83.40
2018-10-17T19:18:57.969Z,84.30
2018-10-17T19:21:29.582Z,86.87
2018-10-17T19:24:01.337Z,87.83
2018-10-17T19:26:33.265Z,87.30
2018-10-17T19:29:05.091Z,87.80
2018-10-17T19:31:37.640Z,91.43
2018-10-17T19:34:09.556Z,86.90
2018-10-17T19:36:42.372Z,90.07
2018-10-17T19:39:14.757Z,92.43
2018-10-17T19:41:47.358Z,91.57
2018-10-17T19:44:19.319Z,93.30
2018-10-17T19:46:51.386Z,92.73
2018-10-17T19:49:23.295Z,93.37
2018-10-17T19:51:55.884Z,100.03
2018-10-17T19:54:28.312Z,96.03
2018-10-17T19:57:00.094Z,103.30
2018-10-17T19:59:32.093Z,98.60
2018-10-17T20:02:04.345Z,98.93
2018-10-17T20:04:36.063Z,101.80
2018-10-17T20:07:08.009Z,105.17
2018-10-17T20:09:40.177Z,104.10
2018-10-17T20:12:11.885Z,104.27
2018-10-17T20:14:44.040Z,105.70
2018-10-17T20:17:16.361Z,110.07
2018-10-17T20:19:48.075Z,111.33
2018-10-17T20:22:19.987Z,109.87
2018-10-17T20:24:51.664Z,111.27
2018-10-17T20:27:23.267Z,111.33
2018-10-17T20:29:55.826Z,111.73
2018-10-17T20:32:27.812Z,110.83
2018-10-17T20:35:00.386Z,111.03
2018-10-17T20:37:32.159Z,112.77
2018-10-17T20:40:04.143Z,107.87
2018-10-17T20:42:35.840Z,110.30
2018-10-17T20:45:09.140Z,106.33
2018-10-17T20:47:40.970Z,109.40
2018-10-17T20:50:12.717Z,112.37
2018-10-17T20:52:44.542Z,107.80
2018-10-17T20:55:17.234Z,109.53
2018-10-17T20:57:50.144Z,114.07
2018-10-17T21:00:21.723Z,111.77
2018-10-17T21:02:53.412Z,111.40
2018-10-17T21:05:25.054Z,115.67
2018-10-17T21:07:58.476Z,114.90
2018-10-17T21:10:30.103Z,110.57
2018-10-17T21:13:02.103Z,113.60
2018-10-17T21:15:35.580Z,113.70
2018-10-17T21:18:07.731Z,118.40
2018-10-17T21:20:39.416Z,111.27
2018-10-17T21:23:11.434Z,109.93
2018-10-17T21:25:43.593Z,112.33
2018-10-17T21:28:16.580Z,113.90
2018-10-17T21:30:48.681Z,112.07
2018-10-17T21:33:21.335Z,116.10
2018-10-17T21:35:52.950Z,109.97
2018-10-17T21:38:25.204Z,109.83
2018-10-17T21:40:57.250Z,115.73
2018-10-17T21:43:28.822Z,113.27
2018-10-17T21:46:00.274Z,106.50
2018-10-17T21:48:32.315Z,104.93
2018-10-17T21:51:04.358Z,106.77
2018-10-17T21:53:36.718Z,108.37
2018-10-17T21:56:08.886Z,102.43
2018-10-17T21:58:40.554Z,99.90
2018-10-17T22:01:12.223Z,97.97
2018-10-17T22:03:44.272Z,99.33
2018-10-17T22:06:16.232Z,100.13
2018-10-17T22:08:48.237Z,99.30
2018-10-17T22:11:20.168Z,96.57
2018-10-17T22:13:51.709Z,95.77
2018-10-17T22:16:27.540Z,95.57
2018-10-17T22:18:59.177Z,92.30
2018-10-17T22:21:31.523Z,95.53
2018-10-17T22:24:02.984Z,92.73
2018-10-17T22:26:34.894Z,91.77
2018-10-17T22:29:07.573Z,95.93
2018-10-17T22:31:39.452Z,93.93
2018-10-17T22:34:11.536Z,96.97
2018-10-17T22:36:43.460Z,91.67
2018-10-17T22:39:16.383Z,91.60
2018-10-17T22:41:47.984Z,93.77
2018-10-17T22:44:21.137Z,95.40
2018-10-17T22:46:53.204Z,90.53
2018-10-17T22:49:25.292Z,85.47
2018-10-17T22:51:58.129Z,87.60
2018-10-17T22:54:30.141Z,87.93
2018-10-17T22:57:02.635Z,85.47
2018-10-17T22:59:34.662Z,89.00
2018-10-17T23:02:06.683Z,92.30
2018-10-17T23:04:38.465Z,96.30
2018-10-17T23:07:10.661Z,95.27
2018-10-17T23:09:43.066Z,99.07
2018-10-17T23:12:14.845Z,98.17
2018-10-17T23:14:47.285Z,105.07
2018-10-17T23:17:18.934Z,93.33
2018-10-17T23:19:51.045Z,96.30
2018-10-17T23:22:22.841Z,98.83
2018-10-17T23:24:54.874Z,96.80
2018-10-17T23:27:26.345Z,96.37
2018-10-17T23:29:58.441Z,95.67
2018-10-17T23:32:30.069Z,94.43
2018-10-17T23:35:02.577Z,84.10
2018-10-17T23:37:34.481Z,94.87
2018-10-17T23:40:06.261Z,88.53
2018-10-17T23:42:38.079Z,91.20
2018-10-17T23:45:10.320Z,94.30
2018-10-17T23:47:42.500Z,98.00
2018-10-17T23:50:14.383Z,102.37
2018-10-17T23:52:46.494Z,94.23
2018-10-17T23:55:18.264Z,101.77
2018-10-17T23:57:50.066Z,95.20
